Time;durP1;ratioP1;P1;durP2;ratioP2;P2;SDS_P1;SDS_P2;PMS_P1;PMS_P2;Temp;Humidity;BMP_temperature;BMP_pressure;BME280_temperature;BME280_humidity;BME280_pressure;Samples;Min_cycle;Max_cycle;Signal;HPM_P1;HPM_P2
2022/01/01 00:00:10;;;;;;;23.00;14.23;;;;;;;;;;4994196;28;20074;-65
2022/01/01 00:02:37;;;;;;;24.90;16.40;;;;;;;;;;4994928;28;20047;-65
2022/01/01 00:05:06;;;;;;;21.63;15.48;;;;;;;;;;4990337;28;20061;-65
2022/01/01 00:07:33;;;;;;;24.80;17.25;;;;;;;;;;4975847;28;20047;-66
2022/01/01 00:10:00;;;;;;;27.17;17.38;;;;;;;;;;4975411;28;20083;-65
2022/01/01 00:12:27;;;;;;;30.50;19.70;;;;;;;;;;4973420;28;20078;-65
2022/01/01 00:14:54;;;;;;;30.23;20.17;;;;;;;;;;4983531;28;20065;-66
2022/01/01 00:17:21;;;;;;;32.50;21.13;;;;;;;;;;4976289;28;20102;-65
2022/01/01 00:19:47;;;;;;;31.35;22.33;;;;;;;;;;4972841;28;20050;-66
2022/01/01 00:22:15;;;;;;;28.05;19.83;;;;;;;;;;4973069;28;20051;-66
2022/01/01 00:24:41;;;;;;;30.35;21.23;;;;;;;;;;4972786;28;20047;-66
2022/01/01 00:27:08;;;;;;;32.28;21.60;;;;;;;;;;4970834;28;20483;-66
2022/01/01 00:29:34;;;;;;;33.50;23.25;;;;;;;;;;4971661;28;20058;-67
2022/01/01 00:32:01;;;;;;;35.72;24.70;;;;;;;;;;4972815;28;20047;-66
2022/01/01 00:34:34;;;;;;;34.05;23.88;;;;;;;;;;4972774;28;20057;-66
2022/01/01 00:37:00;;;;;;;34.10;22.65;;;;;;;;;;4972902;28;20517;-67
2022/01/01 00:39:27;;;;;;;35.17;23.15;;;;;;;;;;4972790;28;20055;-66
2022/01/01 00:41:54;;;;;;;34.70;22.65;;;;;;;;;;4972941;28;20561;-65
2022/01/01 00:44:20;;;;;;;33.38;22.95;;;;;;;;;;4972657;28;20051;-66
2022/01/01 00:46:47;;;;;;;42.25;27.30;;;;;;;;;;4982922;28;20042;-66
2022/01/01 00:49:13;;;;;;;50.17;31.98;;;;;;;;;;4993017;28;20114;-65
2022/01/01 00:51:41;;;;;;;69.10;42.90;;;;;;;;;;4993806;28;20054;-66
2022/01/01 00:54:08;;;;;;;71.43;45.03;;;;;;;;;;4993894;28;20051;-68
2022/01/01 00:56:34;;;;;;;89.85;53.85;;;;;;;;;;4989420;28;20047;-67
2022/01/01 00:59:01;;;;;;;79.22;49.85;;;;;;;;;;4995184;28;20060;-68
2022/01/01 01:01:27;;;;;;;64.88;42.20;;;;;;;;;;4996401;28;20066;-67
2022/01/01 01:03:54;;;;;;;75.22;50.05;;;;;;;;;;4997062;28;20054;-69
2022/01/01 01:06:21;;;;;;;76.93;49.78;;;;;;;;;;4996904;28;20078;-69
2022/01/01 01:08:47;;;;;;;70.80;46.70;;;;;;;;;;4996786;28;20050;-68
2022/01/01 01:11:14;;;;;;;69.13;47.55;;;;;;;;;;4997084;28;20050;-69
2022/01/01 01:13:44;;;;;;;71.30;48.10;;;;;;;;;;4996138;28;20058;-67
2022/01/01 01:16:11;;;;;;;73.47;48.60;;;;;;;;;;4977697;28;20082;-68
2022/01/01 01:18:38;;;;;;;72.57;46.20;;;;;;;;;;4977338;28;20049;-69
2022/01/01 01:21:06;;;;;;;69.47;46.03;;;;;;;;;;4977464;28;20035;-68
2022/01/01 01:23:33;;;;;;;69.72;45.72;;;;;;;;;;4977064;28;20047;-69
2022/01/01 01:26:01;;;;;;;68.13;44.72;;;;;;;;;;4976874;28;20047;-65
2022/01/01 01:28:30;;;;;;;65.63;44.60;;;;;;;;;;4974405;28;20074;-67
2022/01/01 01:30:56;;;;;;;67.40;44.75;;;;;;;;;;4973006;28;20087;-68
2022/01/01 01:33:23;;;;;;;63.03;43.05;;;;;;;;;;4973312;28;20062;-66
2022/01/01 01:35:50;;;;;;;61.05;40.40;;;;;;;;;;4973573;28;20295;-65
2022/01/01 01:38:16;;;;;;;60.72;39.63;;;;;;;;;;4975247;28;20051;-66
2022/01/01 01:40:43;;;;;;;56.88;39.03;;;;;;;;;;4979586;28;20035;-66
2022/01/01 01:43:11;;;;;;;57.75;38.25;;;;;;;;;;4979157;28;20055;-66
2022/01/01 01:45:38;;;;;;;61.00;39.17;;;;;;;;;;4978976;28;20059;-64
2022/01/01 01:48:05;;;;;;;56.95;36.60;;;;;;;;;;4958473;28;20138;-66
2022/01/01 01:50:33;;;;;;;59.63;38.55;;;;;;;;;;4956607;28;20059;-65
2022/01/01 01:53:01;;;;;;;59.80;38.42;;;;;;;;;;4956275;28;20051;-65
2022/01/01 01:55:27;;;;;;;52.78;37.10;;;;;;;;;;4971200;28;20070;-65
2022/01/01 01:57:55;;;;;;;61.88;38.28;;;;;;;;;;4975557;28;20105;-65
2022/01/01 02:03:09;;;;;;;54.28;35.70;;;;;;;;;;4997168;28;20034;-67
2022/01/01 02:05:36;;;;;;;58.05;36.38;;;;;;;;;;5000248;28;20086;-69
2022/01/01 02:08:06;;;;;;;52.50;34.22;;;;;;;;;;4999923;28;20078;-68
2022/01/01 02:10:33;;;;;;;54.97;35.83;;;;;;;;;;4999849;28;20034;-67
2022/01/01 02:13:09;;;;;;;59.78;36.35;;;;;;;;;;4998738;28;20031;-67
2022/01/01 02:18:25;;;;;;;56.72;37.58;;;;;;;;;;5005502;28;20051;-66
2022/01/01 02:20:51;;;;;;;54.47;36.95;;;;;;;;;;4998025;28;20039;-67
2022/01/01 02:23:21;;;;;;;56.13;35.85;;;;;;;;;;4998075;28;20086;-68
2022/01/01 02:25:52;;;;;;;57.45;36.10;;;;;;;;;;4979242;28;20067;-66
2022/01/01 02:28:19;;;;;;;52.33;34.67;;;;;;;;;;4978892;28;20103;-67
2022/01/01 02:30:46;;;;;;;51.92;35.58;;;;;;;;;;4977156;28;20083;-67
2022/01/01 02:33:13;;;;;;;55.65;38.78;;;;;;;;;;5006797;28;20075;-66
2022/01/01 02:35:39;;;;;;;63.95;43.13;;;;;;;;;;4982252;28;20609;-66
2022/01/01 02:38:07;;;;;;;65.43;43.08;;;;;;;;;;4987667;28;20051;-66
2022/01/01 02:40:34;;;;;;;64.90;43.15;;;;;;;;;;4975674;28;20055;-66
2022/01/01 02:43:01;;;;;;;69.03;44.30;;;;;;;;;;4974030;28;20109;-66
2022/01/01 02:45:29;;;;;;;56.40;40.13;;;;;;;;;;4958910;28;20051;-66
2022/01/01 02:47:56;;;;;;;68.22;41.08;;;;;;;;;;4954623;28;20050;-66
2022/01/01 02:50:22;;;;;;;65.00;39.40;;;;;;;;;;4953462;28;20107;-66
2022/01/01 02:52:49;;;;;;;54.95;37.72;;;;;;;;;;4954064;28;20109;-66
2022/01/01 02:55:16;;;;;;;56.03;37.67;;;;;;;;;;4954203;28;20175;-66
2022/01/01 02:57:42;;;;;;;55.88;36.30;;;;;;;;;;4954092;28;20047;-66
2022/01/01 03:00:09;;;;;;;56.13;35.83;;;;;;;;;;4954473;28;20059;-66
2022/01/01 03:02:36;;;;;;;56.08;38.05;;;;;;;;;;4955174;28;20047;-65
2022/01/01 03:05:03;;;;;;;53.35;36.72;;;;;;;;;;4954349;28;20062;-66
2022/01/01 03:07:29;;;;;;;56.00;38.13;;;;;;;;;;4954172;28;20079;-66
2022/01/01 03:09:56;;;;;;;55.90;37.78;;;;;;;;;;4954063;28;20557;-66
2022/01/01 03:12:23;;;;;;;56.67;37.38;;;;;;;;;;4916687;28;1099407;-67
2022/01/01 03:14:49;;;;;;;55.05;36.08;;;;;;;;;;4963501;28;20058;-66
2022/01/01 03:17:16;;;;;;;57.03;37.33;;;;;;;;;;4983036;28;20101;-66
2022/01/01 03:19:43;;;;;;;52.42;34.63;;;;;;;;;;4993495;28;20051;-66
2022/01/01 03:22:09;;;;;;;51.60;34.85;;;;;;;;;;4994105;28;20042;-66
2022/01/01 03:24:36;;;;;;;53.92;36.35;;;;;;;;;;4985526;28;20518;-67
2022/01/01 03:27:03;;;;;;;54.13;36.88;;;;;;;;;;4973982;28;20047;-66
2022/01/01 03:29:31;;;;;;;56.35;37.00;;;;;;;;;;5004120;28;20062;-66
2022/01/01 03:31:58;;;;;;;52.58;35.58;;;;;;;;;;4972526;28;20057;-66
2022/01/01 03:34:25;;;;;;;53.53;35.60;;;;;;;;;;4966576;28;20106;-67
2022/01/01 03:36:52;;;;;;;58.90;37.00;;;;;;;;;;4954592;28;20097;-67
2022/01/01 03:39:18;;;;;;;56.83;37.25;;;;;;;;;;4954814;28;20139;-66
2022/01/01 03:41:45;;;;;;;53.00;34.58;;;;;;;;;;4954603;28;20054;-66
2022/01/01 03:44:12;;;;;;;53.72;35.58;;;;;;;;;;4954526;28;20635;-66
2022/01/01 03:46:38;;;;;;;48.72;33.47;;;;;;;;;;4954276;28;20106;-66
2022/01/01 03:49:05;;;;;;;52.08;34.33;;;;;;;;;;4954545;28;20055;-66
2022/01/01 03:51:31;;;;;;;50.90;33.92;;;;;;;;;;4954073;28;20059;-66
2022/01/01 03:53:58;;;;;;;47.90;33.03;;;;;;;;;;4954132;28;20573;-66
2022/01/01 03:56:24;;;;;;;52.35;35.50;;;;;;;;;;4954132;28;20408;-66
2022/01/01 03:58:51;;;;;;;57.65;34.47;;;;;;;;;;4954171;28;20058;-66
2022/01/01 04:01:18;;;;;;;49.85;34.10;;;;;;;;;;4953967;28;20094;-66
2022/01/01 04:03:45;;;;;;;52.70;33.28;;;;;;;;;;4953923;28;20082;-67
2022/01/01 04:06:11;;;;;;;50.15;35.10;;;;;;;;;;4954147;28;20079;-67
2022/01/01 04:08:38;;;;;;;53.00;33.92;;;;;;;;;;4953905;28;20043;-66
2022/01/01 04:11:04;;;;;;;50.78;34.25;;;;;;;;;;4954297;28;20051;-67
2022/01/01 04:13:31;;;;;;;49.78;32.65;;;;;;;;;;4953603;28;20058;-66
2022/01/01 04:15:58;;;;;;;53.35;34.70;;;;;;;;;;4954314;28;20047;-67
2022/01/01 04:18:38;;;;;;;50.35;32.92;;;;;;;;;;4953880;28;20051;-66
2022/01/01 04:21:10;;;;;;;53.22;36.05;;;;;;;;;;4954041;28;20118;-66
2022/01/01 04:23:37;;;;;;;57.80;38.22;;;;;;;;;;4953577;28;20059;-66
2022/01/01 04:26:06;;;;;;;57.03;38.35;;;;;;;;;;4971711;28;20109;-66
2022/01/01 04:28:34;;;;;;;55.25;36.60;;;;;;;;;;4972979;28;20051;-66
2022/01/01 04:31:00;;;;;;;54.38;36.00;;;;;;;;;;4973162;28;20129;-66
2022/01/01 04:33:27;;;;;;;59.05;36.17;;;;;;;;;;4972535;28;20051;-66
2022/01/01 04:35:53;;;;;;;58.03;36.33;;;;;;;;;;4972875;28;20105;-66
2022/01/01 04:38:44;;;;;;;54.10;35.25;;;;;;;;;;4972772;28;20047;-66
2022/01/01 04:41:09;;;;;;;55.97;35.10;;;;;;;;;;4973091;28;20059;-66
2022/01/01 04:43:36;;;;;;;50.25;33.72;;;;;;;;;;4972672;28;20050;-66
2022/01/01 04:46:02;;;;;;;49.70;32.55;;;;;;;;;;4972808;28;20109;-66
2022/01/01 04:48:29;;;;;;;48.25;33.70;;;;;;;;;;4971573;28;20054;-66
2022/01/01 04:50:56;;;;;;;48.78;31.88;;;;;;;;;;4972708;28;20577;-66
2022/01/01 04:53:22;;;;;;;50.53;33.00;;;;;;;;;;4962680;28;20055;-66
2022/01/01 04:55:49;;;;;;;47.90;30.27;;;;;;;;;;4953342;28;20086;-67
2022/01/01 04:58:16;;;;;;;49.55;31.35;;;;;;;;;;4953425;28;20055;-67
2022/01/01 05:00:43;;;;;;;45.35;31.35;;;;;;;;;;4953443;28;20533;-66
2022/01/01 05:03:09;;;;;;;46.17;29.52;;;;;;;;;;4953560;28;20055;-66
2022/01/01 05:05:36;;;;;;;47.47;29.45;;;;;;;;;;4953417;28;20059;-66
2022/01/01 05:08:03;;;;;;;43.63;29.48;;;;;;;;;;4953229;28;20082;-66
2022/01/01 05:10:29;;;;;;;48.55;29.75;;;;;;;;;;4953868;28;20106;-67
2022/01/01 05:12:56;;;;;;;44.70;30.90;;;;;;;;;;4953657;28;20047;-66
2022/01/01 05:15:22;;;;;;;47.40;30.40;;;;;;;;;;4957175;28;20051;-67
2022/01/01 05:17:49;;;;;;;48.05;28.65;;;;;;;;;;4956898;28;20462;-67
2022/01/01 05:20:16;;;;;;;44.45;29.48;;;;;;;;;;4957015;28;20655;-66
2022/01/01 05:22:42;;;;;;;45.45;28.40;;;;;;;;;;4958866;28;20051;-66
2022/01/01 05:25:09;;;;;;;46.78;28.60;;;;;;;;;;4976109;28;20498;-66
2022/01/01 05:27:36;;;;;;;47.65;28.65;;;;;;;;;;4975778;28;20043;-66
2022/01/01 05:30:04;;;;;;;42.17;27.42;;;;;;;;;;4976117;28;20066;-66
2022/01/01 05:32:31;;;;;;;44.08;28.40;;;;;;;;;;4975128;28;20086;-66
2022/01/01 05:34:57;;;;;;;41.17;25.23;;;;;;;;;;4956583;28;20558;-66
2022/01/01 05:37:24;;;;;;;38.00;24.67;;;;;;;;;;4956551;28;20047;-66
2022/01/01 05:39:51;;;;;;;39.67;24.25;;;;;;;;;;4956519;28;20126;-66
2022/01/01 05:42:17;;;;;;;39.95;25.35;;;;;;;;;;4956781;28;20195;-66
2022/01/01 05:44:44;;;;;;;34.78;22.52;;;;;;;;;;4956473;28;20098;-67
2022/01/01 05:47:11;;;;;;;42.08;26.15;;;;;;;;;;4960253;28;20062;-66
2022/01/01 05:49:37;;;;;;;36.22;22.80;;;;;;;;;;4975516;28;20054;-66
2022/01/01 05:52:04;;;;;;;36.63;22.77;;;;;;;;;;4975788;28;20454;-67
2022/01/01 05:54:31;;;;;;;35.38;22.85;;;;;;;;;;4975544;28;20190;-67
2022/01/01 05:56:57;;;;;;;34.88;22.20;;;;;;;;;;4975524;28;20055;-66
2022/01/01 05:59:24;;;;;;;33.70;21.02;;;;;;;;;;4975598;28;20436;-66
2022/01/01 06:01:50;;;;;;;29.42;18.48;;;;;;;;;;4975115;28;20051;-66
2022/01/01 06:04:17;;;;;;;27.63;17.10;;;;;;;;;;4975212;28;20507;-65
2022/01/01 06:06:45;;;;;;;28.23;17.73;;;;;;;;;;4975289;28;20051;-66
2022/01/01 06:09:11;;;;;;;25.27;16.80;;;;;;;;;;4975193;28;20101;-65
2022/01/01 06:11:38;;;;;;;26.05;15.30;;;;;;;;;;4975022;28;20055;-67
2022/01/01 06:14:04;;;;;;;24.83;16.25;;;;;;;;;;4975242;28;20086;-66
2022/01/01 06:16:31;;;;;;;21.58;13.95;;;;;;;;;;4975336;28;20058;-67
2022/01/01 06:18:58;;;;;;;18.65;11.95;;;;;;;;;;4975062;28;20098;-65
2022/01/01 06:21:26;;;;;;;14.27;10.02;;;;;;;;;;4975106;28;20477;-66
2022/01/01 06:23:55;;;;;;;14.20;9.75;;;;;;;;;;4975008;28;20414;-67
2022/01/01 06:26:22;;;;;;;15.52;9.93;;;;;;;;;;4974741;28;20047;-66
2022/01/01 06:28:48;;;;;;;14.60;9.00;;;;;;;;;;4974890;28;20051;-65
2022/01/01 06:31:15;;;;;;;13.85;9.35;;;;;;;;;;4975151;28;20097;-66
2022/01/01 06:33:42;;;;;;;12.63;8.55;;;;;;;;;;4973997;28;20051;-66
2022/01/01 06:36:12;;;;;;;14.18;9.07;;;;;;;;;;4974919;28;20046;-66
2022/01/01 06:38:42;;;;;;;12.98;9.02;;;;;;;;;;4974880;28;20162;-66
2022/01/01 06:41:09;;;;;;;15.85;9.63;;;;;;;;;;4975119;28;20058;-66
2022/01/01 06:43:35;;;;;;;11.77;8.85;;;;;;;;;;4972697;28;20051;-67
2022/01/01 06:46:02;;;;;;;13.77;8.27;;;;;;;;;;4955515;28;20059;-67
2022/01/01 06:48:29;;;;;;;14.68;8.27;;;;;;;;;;4955290;28;20448;-67
2022/01/01 06:50:55;;;;;;;15.48;8.57;;;;;;;;;;4955246;28;20055;-66
2022/01/01 06:53:22;;;;;;;13.20;8.40;;;;;;;;;;4955241;28;20126;-66
2022/01/01 06:55:49;;;;;;;13.35;7.72;;;;;;;;;;4955070;28;20055;-67
2022/01/01 06:58:15;;;;;;;12.30;7.93;;;;;;;;;;4955312;28;20043;-67
2022/01/01 07:00:42;;;;;;;12.32;7.70;;;;;;;;;;4955173;28;20051;-67
2022/01/01 07:03:09;;;;;;;12.98;7.88;;;;;;;;;;4955015;28;20067;-67
2022/01/01 07:05:35;;;;;;;9.82;6.80;;;;;;;;;;4957347;28;20525;-66
2022/01/01 07:08:02;;;;;;;9.02;6.75;;;;;;;;;;4954986;28;20047;-66
2022/01/01 07:10:29;;;;;;;8.95;6.80;;;;;;;;;;4955009;28;20516;-67
2022/01/01 07:12:55;;;;;;;10.43;6.68;;;;;;;;;;4954448;28;20577;-66
2022/01/01 07:15:22;;;;;;;10.20;7.15;;;;;;;;;;4963508;28;20058;-66
2022/01/01 07:17:48;;;;;;;14.25;6.88;;;;;;;;;;4955585;28;20094;-67
2022/01/01 07:20:15;;;;;;;9.18;5.85;;;;;;;;;;4954803;28;20110;-69
2022/01/01 07:22:43;;;;;;;12.45;6.60;;;;;;;;;;4954397;28;20051;-66
2022/01/01 07:25:10;;;;;;;10.75;6.68;;;;;;;;;;4967514;28;20050;-66
2022/01/01 07:27:37;;;;;;;9.90;6.55;;;;;;;;;;4974709;28;20050;-66
2022/01/01 07:30:05;;;;;;;8.40;6.25;;;;;;;;;;4974441;28;20046;-66
2022/01/01 07:32:39;;;;;;;8.27;6.25;;;;;;;;;;4972648;28;20124;-66
2022/01/01 07:35:06;;;;;;;9.00;5.45;;;;;;;;;;4961713;28;20051;-66
2022/01/01 07:37:33;;;;;;;11.55;5.80;;;;;;;;;;4954054;28;20121;-67
2022/01/01 07:40:00;;;;;;;9.90;5.78;;;;;;;;;;4954395;28;20502;-66
2022/01/01 07:42:26;;;;;;;8.48;5.53;;;;;;;;;;4951487;28;20047;-67
2022/01/01 07:44:53;;;;;;;7.95;5.80;;;;;;;;;;4964448;28;20059;-67
2022/01/01 07:47:20;;;;;;;7.50;4.90;;;;;;;;;;4962128;28;20106;-67
2022/01/01 07:49:47;;;;;;;10.20;6.22;;;;;;;;;;4966960;28;20458;-66
2022/01/01 07:52:17;;;;;;;9.13;6.03;;;;;;;;;;4959858;28;20059;-66
2022/01/01 07:54:43;;;;;;;9.93;5.70;;;;;;;;;;4958933;28;20502;-67
2022/01/01 07:57:10;;;;;;;9.52;5.75;;;;;;;;;;4959886;28;20066;-67
2022/01/01 07:59:37;;;;;;;9.32;5.57;;;;;;;;;;4960302;28;20043;-68
2022/01/01 08:02:03;;;;;;;7.25;5.05;;;;;;;;;;4962245;28;20105;-67
2022/01/01 08:04:30;;;;;;;8.63;5.60;;;;;;;;;;4960130;28;20082;-66
2022/01/01 08:06:56;;;;;;;9.00;5.30;;;;;;;;;;4958258;28;21073;-67
2022/01/01 08:09:43;;;;;;;11.88;7.18;;;;;;;;;;4957295;28;20138;-66
2022/01/01 08:12:10;;;;;;;10.88;6.43;;;;;;;;;;4965812;28;20054;-67
2022/01/01 08:14:36;;;;;;;14.30;7.60;;;;;;;;;;4961941;28;20055;-67
2022/01/01 08:17:06;;;;;;;10.73;6.28;;;;;;;;;;4960142;28;20113;-66
2022/01/01 08:19:33;;;;;;;9.45;5.40;;;;;;;;;;4957578;28;20113;-65
2022/01/01 08:22:00;;;;;;;9.18;5.75;;;;;;;;;;4944511;28;20100;-67
2022/01/01 08:24:27;;;;;;;9.38;4.97;;;;;;;;;;4981037;28;20324;-68
2022/01/01 08:26:55;;;;;;;5.28;4.25;;;;;;;;;;4954968;28;20109;-68
2022/01/01 08:29:22;;;;;;;6.40;4.65;;;;;;;;;;4959584;28;20065;-69
2022/01/01 08:31:51;;;;;;;7.63;5.07;;;;;;;;;;4956748;28;20094;-69
2022/01/01 08:34:19;;;;;;;6.00;4.07;;;;;;;;;;4955691;28;20098;-67
2022/01/01 08:36:46;;;;;;;7.05;4.45;;;;;;;;;;4958600;28;20102;-68
2022/01/01 08:39:14;;;;;;;5.68;4.10;;;;;;;;;;4960481;28;20054;-68
2022/01/01 08:41:43;;;;;;;6.45;4.85;;;;;;;;;;4960679;28;20059;-68
2022/01/01 08:44:09;;;;;;;7.88;4.75;;;;;;;;;;4961225;28;20316;-68
2022/01/01 08:46:36;;;;;;;6.05;4.28;;;;;;;;;;4957855;28;20051;-68
2022/01/01 08:49:03;;;;;;;7.00;4.60;;;;;;;;;;4959316;28;20418;-68
2022/01/01 08:51:35;;;;;;;6.53;4.40;;;;;;;;;;4964611;28;20473;-68
2022/01/01 08:54:03;;;;;;;7.45;5.15;;;;;;;;;;4961466;28;20096;-67
2022/01/01 08:56:30;;;;;;;6.13;4.70;;;;;;;;;;4966982;28;20043;-66
2022/01/01 08:58:56;;;;;;;6.63;4.60;;;;;;;;;;4964556;28;20046;-67
2022/01/01 09:01:23;;;;;;;7.25;4.85;;;;;;;;;;4963474;28;20117;-66
2022/01/01 09:03:50;;;;;;;7.38;4.80;;;;;;;;;;4966434;28;20050;-66
2022/01/01 09:06:17;;;;;;;6.38;4.50;;;;;;;;;;4964247;28;20326;-67
2022/01/01 09:08:43;;;;;;;9.55;4.97;;;;;;;;;;4960503;28;20110;-65
2022/01/01 09:11:12;;;;;;;6.82;4.60;;;;;;;;;;4961550;28;20736;-67
2022/01/01 09:13:42;;;;;;;6.75;5.05;;;;;;;;;;4960366;28;20091;-67
2022/01/01 09:16:14;;;;;;;6.60;4.40;;;;;;;;;;4961272;28;20498;-64
2022/01/01 09:18:42;;;;;;;7.70;4.80;;;;;;;;;;4962318;28;20046;-65
2022/01/01 09:21:09;;;;;;;6.68;4.40;;;;;;;;;;4966459;28;20086;-64
2022/01/01 09:23:36;;;;;;;6.07;3.92;;;;;;;;;;4961610;28;20099;-66
2022/01/01 09:26:02;;;;;;;6.70;4.38;;;;;;;;;;4964939;28;20105;-64
2022/01/01 09:28:30;;;;;;;6.78;4.32;;;;;;;;;;4961864;28;20047;-65
2022/01/01 09:30:57;;;;;;;6.88;4.57;;;;;;;;;;4961752;28;20059;-65
2022/01/01 09:33:29;;;;;;;10.07;5.57;;;;;;;;;;4963904;28;20101;-67
2022/01/01 09:35:56;;;;;;;6.85;4.35;;;;;;;;;;4961760;28;20050;-68
2022/01/01 09:38:23;;;;;;;7.07;4.85;;;;;;;;;;4961927;28;20047;-66
2022/01/01 09:40:53;;;;;;;6.75;4.55;;;;;;;;;;4966424;28;20113;-67
2022/01/01 09:43:21;;;;;;;7.13;4.43;;;;;;;;;;4957220;28;20046;-69
2022/01/01 09:45:49;;;;;;;8.85;5.63;;;;;;;;;;4961746;28;20109;-65
2022/01/01 09:48:20;;;;;;;7.03;4.45;;;;;;;;;;4965344;28;20047;-70
2022/01/01 09:50:49;;;;;;;4.25;3.58;;;;;;;;;;4964066;28;20051;-65
2022/01/01 09:53:17;;;;;;;6.30;4.63;;;;;;;;;;4975935;28;20047;-66
2022/01/01 09:55:44;;;;;;;7.18;4.68;;;;;;;;;;4959562;28;20054;-65
2022/01/01 09:58:11;;;;;;;9.80;5.30;;;;;;;;;;4967903;28;20130;-65
2022/01/01 10:00:37;;;;;;;8.70;4.82;;;;;;;;;;4970306;28;20109;-65
2022/01/01 10:03:04;;;;;;;6.38;4.63;;;;;;;;;;4967432;28;20055;-65
2022/01/01 10:05:30;;;;;;;6.68;4.57;;;;;;;;;;4968586;28;20047;-68
2022/01/01 10:08:01;;;;;;;4.90;3.70;;;;;;;;;;4961764;28;20112;-70
2022/01/01 10:10:28;;;;;;;5.43;3.95;;;;;;;;;;4958308;28;20328;-71
2022/01/01 10:12:55;;;;;;;6.15;4.10;;;;;;;;;;4960848;28;20469;-68
2022/01/01 10:15:22;;;;;;;7.68;4.72;;;;;;;;;;4963252;28;20058;-70
2022/01/01 10:17:51;;;;;;;6.22;3.95;;;;;;;;;;4962324;28;20418;-71
2022/01/01 10:20:18;;;;;;;7.22;4.70;;;;;;;;;;4980151;28;20043;-71
2022/01/01 10:22:50;;;;;;;6.85;4.28;;;;;;;;;;4961410;28;20242;-64
2022/01/01 10:28:04;;;;;;;7.25;3.92;;;;;;;;;;4960836;28;20043;-66
2022/01/01 10:30:39;;;;;;;5.28;3.53;;;;;;;;;;4961889;28;20057;-68
2022/01/01 10:33:09;;;;;;;6.75;3.38;;;;;;;;;;4963932;28;20126;-66
2022/01/01 10:35:38;;;;;;;3.90;3.17;;;;;;;;;;4960375;28;20051;-68
2022/01/01 10:38:06;;;;;;;5.47;3.75;;;;;;;;;;4967108;28;20129;-67
2022/01/01 10:40:33;;;;;;;7.50;4.05;;;;;;;;;;4960285;28;20520;-68
2022/01/01 10:43:00;;;;;;;4.95;3.42;;;;;;;;;;4961613;28;20054;-64
2022/01/01 10:45:47;;;;;;;6.25;3.30;;;;;;;;;;4960341;28;20055;-71
2022/01/01 10:48:40;;;;;;;6.38;3.25;;;;;;;;;;4960706;28;20051;-72
2022/01/01 10:51:08;;;;;;;6.75;4.50;;;;;;;;;;4972673;28;20291;-72
2022/01/01 10:53:35;;;;;;;4.75;3.67;;;;;;;;;;4963552;28;20395;-67
2022/01/01 10:56:18;;;;;;;5.15;3.40;;;;;;;;;;4960070;28;20043;-66
2022/01/01 10:58:45;;;;;;;4.05;3.10;;;;;;;;;;4962907;28;20051;-67
2022/01/01 11:01:12;;;;;;;5.30;3.15;;;;;;;;;;4964455;28;20061;-67
2022/01/01 11:03:41;;;;;;;5.18;3.03;;;;;;;;;;4959516;28;20047;-64
2022/01/01 11:06:12;;;;;;;6.95;3.22;;;;;;;;;;4961726;28;20059;-63
2022/01/01 11:08:43;;;;;;;7.18;3.50;;;;;;;;;;4961883;28;20494;-64
2022/01/01 11:11:13;;;;;;;3.85;2.95;;;;;;;;;;4960590;28;20051;-68
2022/01/01 11:13:41;;;;;;;3.78;2.92;;;;;;;;;;4960897;28;20046;-70
2022/01/01 11:16:08;;;;;;;5.55;3.33;;;;;;;;;;4962046;28;20058;-69
2022/01/01 11:18:36;;;;;;;5.57;3.45;;;;;;;;;;4960913;28;20046;-64
2022/01/01 11:21:04;;;;;;;5.78;3.15;;;;;;;;;;4962473;28;20142;-64
2022/01/01 11:23:32;;;;;;;4.50;3.22;;;;;;;;;;4960868;28;20556;-67
2022/01/01 11:25:59;;;;;;;5.40;3.38;;;;;;;;;;4959302;28;20503;-67
2022/01/01 11:28:26;;;;;;;6.93;3.47;;;;;;;;;;4961839;28;20058;-67
2022/01/01 11:30:57;;;;;;;4.32;2.83;;;;;;;;;;4959454;28;20059;-67
2022/01/01 11:33:39;;;;;;;3.85;2.72;;;;;;;;;;4961545;28;20051;-68
2022/01/01 11:36:06;;;;;;;4.32;2.88;;;;;;;;;;4958817;28;20059;-66
2022/01/01 11:38:35;;;;;;;4.07;3.08;;;;;;;;;;4964009;28;20079;-67
2022/01/01 11:41:05;;;;;;;5.65;3.28;;;;;;;;;;4960650;28;20126;-68
2022/01/01 11:43:48;;;;;;;3.75;2.97;;;;;;;;;;4959911;28;20057;-69
2022/01/01 11:46:20;;;;;;;5.55;3.03;;;;;;;;;;4967882;28;20046;-70
2022/01/01 11:48:51;;;;;;;4.85;3.25;;;;;;;;;;4967940;28;20043;-71
2022/01/01 11:51:19;;;;;;;4.65;3.38;;;;;;;;;;4967875;28;20050;-70
2022/01/01 11:54:08;;;;;;;6.13;3.22;;;;;;;;;;4969917;28;20046;-71
2022/01/01 11:56:50;;;;;;;4.50;3.40;;;;;;;;;;4966855;28;20039;-71
2022/01/01 11:59:39;;;;;;;5.03;3.50;;;;;;;;;;4998571;28;20118;-69
2022/01/01 12:02:20;;;;;;;6.35;3.70;;;;;;;;;;4968091;28;20051;-68
2022/01/01 12:04:51;;;;;;;4.15;3.00;;;;;;;;;;4968463;28;20043;-70
2022/01/01 12:07:18;;;;;;;7.80;4.30;;;;;;;;;;4982251;28;20281;-70
2022/01/01 12:09:54;;;;;;;6.35;4.15;;;;;;;;;;4972351;28;20481;-72
2022/01/01 12:12:49;;;;;;;6.25;4.82;;;;;;;;;;4979642;28;20055;-70
2022/01/01 12:15:38;;;;;;;6.60;4.45;;;;;;;;;;5001018;28;20569;-68
2022/01/01 12:18:07;;;;;;;6.03;4.20;;;;;;;;;;4964026;28;20051;-65
2022/01/01 12:20:51;;;;;;;5.88;4.07;;;;;;;;;;4961053;28;20840;-65
2022/01/01 12:23:26;;;;;;;8.15;4.93;;;;;;;;;;4959910;28;20450;-63
2022/01/01 12:25:54;;;;;;;7.07;4.80;;;;;;;;;;4958716;28;20512;-65
2022/01/01 12:28:31;;;;;;;8.63;4.35;;;;;;;;;;4962125;28;20107;-65
2022/01/01 12:31:05;;;;;;;7.68;4.35;;;;;;;;;;4960310;28;20081;-65
2022/01/01 12:33:52;;;;;;;6.35;4.30;;;;;;;;;;4959357;28;20120;-66
2022/01/01 12:36:23;;;;;;;7.32;4.35;;;;;;;;;;4963738;28;20449;-65
2022/01/01 12:38:55;;;;;;;5.82;3.97;;;;;;;;;;4962121;28;20047;-64
2022/01/01 12:41:38;;;;;;;7.70;4.28;;;;;;;;;;4957455;28;20482;-65
2022/01/01 12:44:06;;;;;;;5.25;4.15;;;;;;;;;;4964277;28;20047;-65
2022/01/01 12:46:35;;;;;;;5.68;3.95;;;;;;;;;;4960001;28;20102;-65
2022/01/01 12:49:05;;;;;;;7.97;4.20;;;;;;;;;;4957976;28;20058;-65
2022/01/01 12:51:37;;;;;;;6.38;4.40;;;;;;;;;;4959811;28;20050;-65
2022/01/01 12:54:14;;;;;;;7.20;4.47;;;;;;;;;;4958433;28;20058;-66
2022/01/01 12:56:43;;;;;;;5.70;4.00;;;;;;;;;;4958138;28;20051;-66
2022/01/01 12:59:11;;;;;;;6.45;4.05;;;;;;;;;;4962676;28;20047;-65
2022/01/01 13:01:44;;;;;;;6.68;4.78;;;;;;;;;;4957980;28;20076;-66
2022/01/01 13:04:19;;;;;;;6.75;5.03;;;;;;;;;;4962769;28;20050;-65
2022/01/01 13:06:53;;;;;;;5.03;3.97;;;;;;;;;;4959932;28;20572;-66
2022/01/01 13:09:22;;;;;;;5.25;4.00;;;;;;;;;;4957771;28;20048;-66
2022/01/01 13:11:56;;;;;;;8.45;4.82;;;;;;;;;;4960890;28;20046;-67
2022/01/01 13:14:24;;;;;;;7.05;4.38;;;;;;;;;;4958817;28;20094;-66
2022/01/01 13:16:51;;;;;;;7.60;4.70;;;;;;;;;;4959372;28;20077;-67
2022/01/01 13:19:17;;;;;;;5.65;4.00;;;;;;;;;;4954605;28;20055;-70
2022/01/01 13:21:44;;;;;;;4.63;3.63;;;;;;;;;;4958792;28;20403;-72
2022/01/01 13:24:12;;;;;;;5.80;3.35;;;;;;;;;;4959350;28;20474;-71
2022/01/01 13:26:39;;;;;;;6.10;3.65;;;;;;;;;;4966297;28;20043;-69
2022/01/01 13:29:06;;;;;;;6.72;3.08;;;;;;;;;;4967397;28;20137;-69
2022/01/01 13:31:35;;;;;;;5.00;3.50;;;;;;;;;;4972318;28;20106;-69
2022/01/01 13:34:03;;;;;;;6.10;4.15;;;;;;;;;;4959304;28;20476;-67
2022/01/01 13:36:43;;;;;;;6.50;3.30;;;;;;;;;;4966830;28;20099;-71
2022/01/01 13:39:12;;;;;;;3.88;3.00;;;;;;;;;;4976132;28;20499;-67
2022/01/01 13:41:43;;;;;;;3.90;2.83;;;;;;;;;;4962780;28;20042;-65
2022/01/01 13:44:26;;;;;;;5.28;2.90;;;;;;;;;;4961472;28;20135;-65
2022/01/01 13:47:05;;;;;;;2.67;2.10;;;;;;;;;;4961966;28;20470;-66
2022/01/01 13:49:43;;;;;;;4.45;2.78;;;;;;;;;;4996470;28;20646;-67
2022/01/01 13:52:17;;;;;;;3.85;2.40;;;;;;;;;;4961810;28;20054;-66
2022/01/01 13:54:44;;;;;;;3.70;2.60;;;;;;;;;;4963035;28;20051;-68
2022/01/01 13:57:16;;;;;;;3.42;2.45;;;;;;;;;;4964422;28;20058;-68
2022/01/01 13:59:43;;;;;;;5.68;3.25;;;;;;;;;;4969820;28;20058;-69
2022/01/01 14:02:13;;;;;;;5.68;2.90;;;;;;;;;;4962764;28;20155;-67
2022/01/01 14:04:43;;;;;;;5.55;3.78;;;;;;;;;;4964067;28;20050;-68
2022/01/01 14:07:16;;;;;;;6.32;3.40;;;;;;;;;;4962102;28;20055;-72
2022/01/01 14:10:00;;;;;;;4.28;3.40;;;;;;;;;;4976766;28;20058;-74
2022/01/01 14:12:38;;;;;;;6.65;3.60;;;;;;;;;;4955318;28;20069;-70
2022/01/01 14:15:06;;;;;;;4.25;3.05;;;;;;;;;;4960690;28;20055;-69
2022/01/01 14:17:57;;;;;;;5.57;3.05;;;;;;;;;;4979672;28;20054;-70
2022/01/01 14:20:28;;;;;;;5.45;3.40;;;;;;;;;;4965210;28;20138;-68
2022/01/01 14:22:59;;;;;;;5.75;3.00;;;;;;;;;;4963552;28;20077;-73
2022/01/01 14:25:30;;;;;;;4.95;2.78;;;;;;;;;;4963197;28;20061;-70
2022/01/01 14:28:05;;;;;;;4.55;3.67;;;;;;;;;;4962877;28;21202;-67
2022/01/01 14:30:32;;;;;;;3.75;2.85;;;;;;;;;;4960081;28;20051;-66
2022/01/01 14:33:00;;;;;;;4.82;3.40;;;;;;;;;;4962700;28;20102;-68
2022/01/01 14:35:29;;;;;;;4.68;3.30;;;;;;;;;;4968834;28;20062;-65
2022/01/01 14:37:57;;;;;;;4.75;3.15;;;;;;;;;;4962670;28;20102;-67
2022/01/01 14:40:25;;;;;;;6.65;3.50;;;;;;;;;;4962677;28;20051;-66
2022/01/01 14:42:52;;;;;;;5.28;3.65;;;;;;;;;;4961906;28;20179;-66
2022/01/01 14:45:18;;;;;;;5.13;3.30;;;;;;;;;;4960029;28;20087;-66
2022/01/01 14:48:06;;;;;;;6.38;3.10;;;;;;;;;;4959352;28;20042;-67